Time;durP1;ratioP1;P1;durP2;ratioP2;P2;SDS_P1;SDS_P2;PMS_P1;PMS_P2;Temp;Humidity;BMP_temperature;BMP_pressure;BME280_temperature;BME280_humidity;BME280_pressure;Samples;Min_cycle;Max_cycle;Signal;HPM_P1;HPM_P2
2022/03/23 00:00:15;;;;;;;17.43;12.67;;;7.00;78.80;;;;;;10517167;28;20286;-70
2022/03/23 00:05:18;;;;;;;19.70;11.90;;;6.90;79.00;;;;;;10521556;28;20179;-72
2022/03/23 00:10:19;;;;;;;16.17;11.67;;;6.70;79.40;;;;;;10531477;28;20412;-72
2022/03/23 00:15:20;;;;;;;14.83;11.83;;;6.70;80.00;;;;;;10509962;28;20857;-71
2022/03/23 00:20:21;;;;;;;17.43;13.43;;;6.70;80.20;;;;;;10521736;28;20182;-72
2022/03/23 00:25:21;;;;;;;14.27;11.70;;;6.70;80.60;;;;;;10507279;28;20203;-72
2022/03/23 00:30:25;;;;;;;20.13;13.00;;;6.70;80.70;;;;;;10520985;28;20282;-71
2022/03/23 00:35:25;;;;;;;15.50;12.27;;;6.60;81.20;;;;;;10527202;28;20325;-70
2022/03/23 00:40:30;;;;;;;15.47;11.90;;;6.60;81.20;;;;;;10517960;28;20281;-69
2022/03/23 00:45:31;;;;;;;16.43;11.33;;;6.50;79.70;;;;;;10515929;28;20596;-71
2022/03/23 00:50:34;;;;;;;13.40;10.73;;;6.40;80.40;;;;;;10513428;28;20309;-69
2022/03/23 00:55:34;;;;;;;12.87;10.40;;;6.30;80.60;;;;;;10506631;28;20265;-70
2022/03/23 01:00:35;;;;;;;14.20;10.50;;;6.20;80.80;;;;;;10506057;28;20787;-70
2022/03/23 01:05:37;;;;;;;14.87;11.53;;;6.10;81.60;;;;;;10522087;28;20491;-70
2022/03/23 01:10:37;;;;;;;16.43;10.47;;;6.10;81.10;;;;;;10497308;28;20258;-71
2022/03/23 01:15:38;;;;;;;13.73;11.10;;;6.00;80.60;;;;;;10512993;28;20237;-71
2022/03/23 01:20:39;;;;;;;18.47;13.23;;;5.90;81.90;;;;;;10513761;28;20280;-71
2022/03/23 01:25:42;;;;;;;14.80;11.53;;;5.90;81.60;;;;;;10522436;28;20260;-70
2022/03/23 01:30:46;;;;;;;15.77;10.50;;;5.90;81.10;;;;;;10514381;28;20223;-70
2022/03/23 01:35:47;;;;;;;16.97;12.10;;;5.80;81.00;;;;;;10529646;28;20612;-69
2022/03/23 01:40:47;;;;;;;16.33;11.73;;;5.70;80.40;;;;;;10524735;28;20301;-70
2022/03/23 01:45:48;;;;;;;17.70;11.83;;;5.80;79.70;;;;;;10515478;28;20596;-69
2022/03/23 01:50:52;;;;;;;14.80;10.83;;;5.90;79.00;;;;;;10529341;28;20227;-70
2022/03/23 01:55:53;;;;;;;15.67;11.40;;;6.00;78.80;;;;;;10510480;28;20237;-71
2022/03/23 02:00:54;;;;;;;19.37;12.63;;;5.90;79.50;;;;;;10512931;28;20677;-70
2022/03/23 02:05:55;;;;;;;19.10;11.57;;;5.90;78.70;;;;;;10510266;28;20678;-70
2022/03/23 02:10:56;;;;;;;18.27;10.83;;;5.90;79.00;;;;;;10523843;28;20234;-71
2022/03/23 02:15:58;;;;;;;17.63;11.50;;;5.90;79.00;;;;;;10520143;28;20235;-70
2022/03/23 02:20:58;;;;;;;19.53;11.77;;;5.80;79.50;;;;;;10525265;28;20720;-69
2022/03/23 02:26:03;;;;;;;21.17;13.23;;;5.80;79.80;;;;;;10513798;28;20226;-70
2022/03/23 02:31:05;;;;;;;20.47;12.33;;;5.60;80.30;;;;;;10524536;28;20226;-70
2022/03/23 02:36:06;;;;;;;20.63;12.40;;;5.50;80.70;;;;;;10510868;28;20233;-71
2022/03/23 02:41:08;;;;;;;16.27;11.57;;;5.50;81.10;;;;;;10517203;28;20233;-70
2022/03/23 02:46:19;;;;;;;17.37;12.30;;;5.50;81.30;;;;;;10510637;28;20780;-69
2022/03/23 02:51:20;;;;;;;17.10;11.87;;;5.40;81.30;;;;;;10500316;28;20219;-70
2022/03/23 03:02:05;;;;;;;20.87;12.50;;;5.20;82.30;;;;;;10527351;28;20227;-70
2022/03/23 03:07:07;;;;;;;14.90;11.30;;;5.20;83.40;;;;;;10524418;28;20233;-70
2022/03/23 03:12:08;;;;;;;16.87;11.90;;;5.20;82.60;;;;;;10496400;28;20272;-70
2022/03/23 03:17:09;;;;;;;20.07;12.13;;;5.20;82.40;;;;;;10513481;28;20709;-70
2022/03/23 03:22:10;;;;;;;16.97;11.87;;;5.10;82.00;;;;;;10505520;28;20228;-71
2022/03/23 03:27:11;;;;;;;16.00;11.07;;;5.00;82.10;;;;;;10509737;28;20233;-70
2022/03/23 03:32:12;;;;;;;15.63;11.70;;;4.90;82.50;;;;;;10499237;28;20234;-71
2022/03/23 03:37:13;;;;;;;15.60;11.77;;;4.90;83.00;;;;;;10503826;28;20270;-70
2022/03/23 03:42:18;;;;;;;17.83;12.17;;;4.80;84.00;;;;;;10512929;28;20305;-71
2022/03/23 03:47:19;;;;;;;15.60;11.90;;;4.80;84.40;;;;;;10511581;28;20227;-70
2022/03/23 03:52:20;;;;;;;15.67;11.50;;;4.70;84.90;;;;;;10503368;28;20218;-70
2022/03/23 03:57:24;;;;;;;16.43;11.70;;;4.70;84.90;;;;;;10505621;28;20226;-71
2022/03/23 04:02:25;;;;;;;17.67;12.63;;;4.70;85.20;;;;;;10524891;28;20226;-70
2022/03/23 04:07:26;;;;;;;14.63;11.13;;;4.70;85.00;;;;;;10525063;28;20233;-70
2022/03/23 04:12:26;;;;;;;16.37;11.47;;;4.70;84.60;;;;;;10517093;28;20246;-70
2022/03/23 04:17:27;;;;;;;17.70;12.03;;;4.70;84.40;;;;;;10516829;28;20330;-70
2022/03/23 04:22:28;;;;;;;17.00;11.73;;;4.70;84.60;;;;;;10500336;28;20234;-69
2022/03/23 04:27:30;;;;;;;21.80;12.10;;;4.70;84.90;;;;;;10514269;28;20230;-71
2022/03/23 04:32:31;;;;;;;16.43;11.87;;;4.60;85.70;;;;;;10526164;28;20227;-71
2022/03/23 04:37:31;;;;;;;17.13;11.87;;;4.60;85.90;;;;;;10514675;28;20604;-72
2022/03/23 04:42:32;;;;;;;23.87;13.20;;;4.50;86.40;;;;;;10506835;28;20634;-71
2022/03/23 04:47:34;;;;;;;23.60;12.80;;;4.40;87.00;;;;;;10496901;28;20275;-70
2022/03/23 04:52:36;;;;;;;23.10;13.07;;;4.50;87.20;;;;;;10517317;28;20714;-70
2022/03/23 04:57:37;;;;;;;19.60;12.43;;;4.40;87.50;;;;;;10513401;28;20333;-70
2022/03/23 05:02:39;;;;;;;16.87;11.00;;;4.30;87.00;;;;;;10522536;28;20222;-70
2022/03/23 05:07:41;;;;;;;15.13;11.03;;;4.30;86.70;;;;;;10523331;28;20356;-71
2022/03/23 05:12:44;;;;;;;19.87;10.67;;;4.30;86.80;;;;;;10532773;28;20265;-70
2022/03/23 05:17:48;;;;;;;15.97;11.30;;;4.30;87.50;;;;;;10529762;28;20925;-69
2022/03/23 05:22:49;;;;;;;16.17;11.00;;;4.40;87.00;;;;;;10521818;28;20294;-70
2022/03/23 05:27:50;;;;;;;15.87;10.27;;;4.40;87.20;;;;;;10514709;28;20329;-71
2022/03/23 05:32:50;;;;;;;16.20;11.33;;;4.50;86.50;;;;;;10522786;28;20777;-72
2022/03/23 05:37:51;;;;;;;20.17;11.07;;;4.60;86.40;;;;;;10521438;28;20322;-71
2022/03/23 05:42:51;;;;;;;14.97;10.63;;;4.60;86.50;;;;;;10509459;28;20733;-73
2022/03/23 05:47:56;;;;;;;19.63;10.97;;;4.50;86.20;;;;;;10520912;28;20225;-72
2022/03/23 05:52:57;;;;;;;21.70;10.53;;;4.60;86.20;;;;;;10514187;28;20222;-72
2022/03/23 05:57:58;;;;;;;22.20;11.10;;;4.70;85.70;;;;;;10526696;28;20595;-73
2022/03/23 06:02:58;;;;;;;14.87;10.57;;;4.80;85.40;;;;;;10502144;28;20219;-76
2022/03/23 06:07:59;;;;;;;17.63;11.20;;;5.00;84.70;;;;;;10518671;28;20223;-73
2022/03/23 06:13:00;;;;;;;15.63;10.63;;;5.10;84.80;;;;;;10516192;28;20364;-73
2022/03/23 06:18:00;;;;;;;16.77;11.93;;;5.30;83.80;;;;;;10513049;28;20279;-73
2022/03/23 06:23:01;;;;;;;19.23;12.50;;;5.60;83.00;;;;;;10515330;28;20258;-74
2022/03/23 06:28:01;;;;;;;15.43;11.07;;;5.80;83.00;;;;;;10513187;28;20218;-73
2022/03/23 06:33:02;;;;;;;17.33;12.33;;;6.00;83.00;;;;;;10517867;28;20218;-73
2022/03/23 06:38:04;;;;;;;16.67;10.53;;;6.20;82.10;;;;;;10515124;28;20234;-73
2022/03/23 06:43:04;;;;;;;19.23;11.93;;;6.40;80.50;;;;;;10519836;28;20227;-73
2022/03/23 06:48:06;;;;;;;15.70;11.50;;;6.60;80.00;;;;;;10517704;28;20287;-70
2022/03/23 06:53:07;;;;;;;17.70;10.10;;;7.00;78.50;;;;;;10499653;28;20318;-70
2022/03/23 06:58:07;;;;;;;16.63;11.10;;;7.80;76.20;;;;;;10512507;28;20325;-69
2022/03/23 07:03:08;;;;;;;15.57;10.70;;;8.10;73.50;;;;;;10520956;28;20223;-70
2022/03/23 07:13:28;;;;;;;15.27;11.33;;;9.00;70.50;;;;;;10515150;28;20218;-69
2022/03/23 07:18:31;;;;;;;19.67;11.53;;;9.60;68.90;;;;;;10509074;28;20235;-70
2022/03/23 07:23:34;;;;;;;22.20;12.63;;;10.20;65.40;;;;;;10495973;28;20275;-70
2022/03/23 07:28:35;;;;;;;22.07;11.97;;;10.20;65.40;;;;;;10517268;28;20302;-70
2022/03/23 07:33:35;;;;;;;19.40;11.97;;;10.40;64.00;;;;;;10514844;28;20317;-69
2022/03/23 07:38:39;;;;;;;20.17;11.20;;;10.10;63.30;;;;;;10498955;28;20242;-70
2022/03/23 07:43:40;;;;;;;16.73;11.70;;;10.20;63.20;;;;;;10523815;28;20222;-70
2022/03/23 07:48:41;;;;;;;14.70;10.17;;;10.40;62.60;;;;;;10488973;28;20231;-70
2022/03/23 07:53:41;;;;;;;16.73;9.47;;;11.30;59.30;;;;;;10520810;28;20376;-70
2022/03/23 07:58:42;;;;;;;19.37;9.47;;;13.30;54.50;;;;;;10520760;28;20313;-71
2022/03/23 08:03:42;;;;;;;14.50;9.20;;;17.80;47.20;;;;;;10504207;28;20749;-70
2022/03/23 08:08:43;;;;;;;15.57;9.90;;;22.00;37.70;;;;;;10514212;28;20236;-70
2022/03/23 08:13:44;;;;;;;12.70;9.30;;;23.30;31.40;;;;;;10506581;28;20231;-69
2022/03/23 08:18:44;;;;;;;16.63;9.30;;;24.10;30.10;;;;;;10513254;28;20287;-70
2022/03/23 08:23:45;;;;;;;14.93;9.97;;;25.20;29.00;;;;;;10506589;28;20242;-72
2022/03/23 08:28:47;;;;;;;19.63;10.63;;;27.50;27.10;;;;;;10519568;28;20695;-70
2022/03/23 08:33:47;;;;;;;14.00;10.77;;;28.60;24.90;;;;;;10521310;28;20258;-71
2022/03/23 08:38:48;;;;;;;18.17;12.13;;;27.60;25.70;;;;;;10513189;28;20239;-70
2022/03/23 08:43:49;;;;;;;19.47;11.47;;;29.30;25.30;;;;;;10510019;28;20225;-71
2022/03/23 08:48:49;;;;;;;17.40;11.40;;;31.00;23.60;;;;;;10504407;28;20215;-71
2022/03/23 08:53:50;;;;;;;19.57;13.53;;;31.00;23.30;;;;;;10519230;28;20245;-70
2022/03/23 08:58:51;;;;;;;16.60;11.57;;;31.20;22.80;;;;;;10514150;28;20250;-72
2022/03/23 09:03:53;;;;;;;15.20;11.57;;;30.40;23.00;;;;;;10500719;28;20726;-70
2022/03/23 09:08:54;;;;;;;22.03;11.67;;;29.70;23.30;;;;;;10521307;28;20765;-70
2022/03/23 09:13:54;;;;;;;15.30;11.33;;;31.50;23.40;;;;;;10525488;28;20218;-70
2022/03/23 09:18:55;;;;;;;13.57;10.87;;;31.40;22.50;;;;;;10502813;28;20722;-71
2022/03/23 09:23:55;;;;;;;19.67;11.50;;;32.80;21.10;;;;;;10518029;28;20226;-70
2022/03/23 09:28:56;;;;;;;17.17;11.00;;;31.20;20.90;;;;;;10504258;28;20242;-70
2022/03/23 09:33:57;;;;;;;15.50;10.67;;;29.40;21.90;;;;;;10518010;28;20222;-71
2022/03/23 09:38:57;;;;;;;15.23;10.57;;;31.50;22.20;;;;;;10523808;28;20222;-71
2022/03/23 09:43:59;;;;;;;12.33;10.10;;;31.50;20.90;;;;;;10512788;28;20258;-70
2022/03/23 09:49:00;;;;;;;13.27;10.07;;;32.60;20.30;;;;;;10515875;28;20568;-71
2022/03/23 09:54:01;;;;;;;12.20;9.20;;;33.40;20.70;;;;;;10511725;28;20223;-71
2022/03/23 09:59:04;;;;;;;10.03;9.00;;;33.20;20.90;;;;;;10514846;28;20242;-71
2022/03/23 10:04:17;;;;;;;13.83;9.80;;;35.00;19.90;;;;;;10512426;28;20222;-72
2022/03/23 10:09:45;;;;;;;15.97;10.37;;;34.90;19.40;;;;;;10517176;28;20218;-71
2022/03/23 10:15:05;;;;;;;15.10;9.63;;;34.40;19.70;;;;;;10499279;28;20226;-71
2022/03/23 10:20:05;;;;;;;12.20;8.90;;;34.00;20.60;;;;;;10511891;28;20218;-71
2022/03/23 10:25:10;;;;;;;13.10;9.67;;;35.90;20.20;;;;;;10513361;28;20187;-70
2022/03/23 10:30:12;;;;;;;15.00;9.70;;;36.30;18.80;;;;;;10512568;28;20253;-72
2022/03/23 10:35:15;;;;;;;12.70;9.23;;;37.50;18.50;;;;;;10512290;28;20242;-72
2022/03/23 10:40:19;;;;;;;13.10;9.33;;;37.00;18.10;;;;;;10516110;28;20191;-71
2022/03/23 10:45:21;;;;;;;12.27;8.70;;;36.90;17.20;;;;;;10494729;28;20211;-71
2022/03/23 10:50:23;;;;;;;14.60;10.03;;;37.00;17.60;;;;;;10510563;28;20654;-71
2022/03/23 10:55:26;;;;;;;12.47;9.63;;;37.50;17.70;;;;;;10503500;28;20261;-71
2022/03/23 11:00:30;;;;;;;13.10;9.10;;;38.50;17.80;;;;;;10491224;28;20222;-72
2022/03/23 11:05:38;;;;;;;11.43;8.77;;;37.90;18.00;;;;;;10522206;28;20237;-71
2022/03/23 11:16:06;;;;;;;10.20;7.67;;;39.30;17.60;;;;;;10510673;28;20260;-71
2022/03/23 11:21:08;;;;;;;11.93;8.67;;;38.90;17.10;;;;;;10511950;28;20218;-71
2022/03/23 11:26:10;;;;;;;10.10;8.97;;;38.80;17.00;;;;;;10510660;28;20226;-70
2022/03/23 11:31:13;;;;;;;12.37;10.47;;;38.30;17.20;;;;;;10515135;28;20305;-70
2022/03/23 11:36:14;;;;;;;11.97;9.57;;;30.90;20.00;;;;;;10518180;28;20317;-69
2022/03/23 11:41:16;;;;;;;11.43;9.40;;;27.20;23.50;;;;;;10521328;28;20214;-71
2022/03/23 11:46:22;;;;;;;18.70;9.73;;;25.00;24.70;;;;;;10511050;28;20717;-70
2022/03/23 11:51:47;;;;;;;10.97;9.90;;;23.40;26.70;;;;;;10512523;28;20225;-70
2022/03/23 11:56:56;;;;;;;10.77;9.77;;;22.30;27.20;;;;;;10508823;28;20277;-70
2022/03/23 12:01:58;;;;;;;11.63;9.90;;;21.20;27.80;;;;;;10501978;28;20225;-69
2022/03/23 12:07:02;;;;;;;15.43;10.20;;;20.90;29.90;;;;;;10519878;28;20289;-69
2022/03/23 12:12:28;;;;;;;12.47;9.67;;;20.80;29.60;;;;;;10500986;28;20251;-70
2022/03/23 12:17:30;;;;;;;10.23;9.20;;;20.80;30.00;;;;;;10521115;28;20295;-70
2022/03/23 12:22:33;;;;;;;11.57;9.13;;;20.80;30.20;;;;;;10515688;28;20234;-70
2022/03/23 12:27:45;;;;;;;11.73;9.10;;;20.70;30.00;;;;;;10520129;28;20360;-70
2022/03/23 12:32:45;;;;;;;10.80;9.07;;;20.50;30.00;;;;;;10514080;28;20227;-70
2022/03/23 12:37:46;;;;;;;12.17;9.57;;;20.40;29.70;;;;;;10521037;28;20748;-69
2022/03/23 12:42:47;;;;;;;9.63;8.63;;;20.40;29.80;;;;;;10512376;28;20698;-70
2022/03/23 12:47:56;;;;;;;13.57;9.53;;;20.40;29.10;;;;;;10502349;28;20264;-69
2022/03/23 12:58:27;;;;;;;12.13;9.27;;;20.30;28.00;;;;;;10520260;28;20301;-69
2022/03/23 13:03:28;;;;;;;10.07;8.63;;;20.20;28.70;;;;;;10524932;28;20226;-69
2022/03/23 13:08:35;;;;;;;10.67;7.67;;;20.20;28.70;;;;;;10512426;28;20241;-70
2022/03/23 13:13:37;;;;;;;11.47;9.43;;;20.20;29.10;;;;;;10512824;28;20310;-70
2022/03/23 13:18:42;;;;;;;13.37;9.30;;;20.10;29.20;;;;;;10525022;28;20214;-69
2022/03/23 13:23:44;;;;;;;13.27;9.23;;;19.90;29.50;;;;;;10511801;28;20231;-69
2022/03/23 13:28:47;;;;;;;9.73;8.73;;;19.90;30.20;;;;;;10520026;28;20242;-69
2022/03/23 13:33:51;;;;;;;10.83;8.13;;;19.90;30.50;;;;;;10519059;28;20227;-69
2022/03/23 13:38:56;;;;;;;13.60;8.43;;;20.00;30.30;;;;;;10517795;28;20704;-70
2022/03/23 13:43:58;;;;;;;11.37;8.73;;;20.00;29.40;;;;;;10513198;28;20227;-70
2022/03/23 13:49:02;;;;;;;15.53;9.27;;;20.00;29.90;;;;;;10515552;28;20270;-69
2022/03/23 13:54:05;;;;;;;12.00;9.33;;;19.90;29.60;;;;;;10512467;28;20233;-71
2022/03/23 13:59:08;;;;;;;10.50;9.30;;;19.90;30.10;;;;;;10514380;28;20247;-70
2022/03/23 14:04:10;;;;;;;14.47;10.50;;;19.80;30.30;;;;;;10502013;28;20229;-70
2022/03/23 14:09:12;;;;;;;13.70;11.90;;;19.80;29.80;;;;;;10521463;28;20236;-74
2022/03/23 14:14:22;;;;;;;16.03;11.87;;;19.70;30.10;;;;;;10513604;28;20219;-69
2022/03/23 14:19:22;;;;;;;13.97;10.83;;;19.70;30.60;;;;;;10515289;28;20264;-70
2022/03/23 14:24:33;;;;;;;14.60;11.53;;;19.60;30.00;;;;;;10511364;28;20261;-70
2022/03/23 14:29:34;;;;;;;15.30;12.27;;;19.60;30.30;;;;;;10493929;28;20699;-69
2022/03/23 14:34:37;;;;;;;16.93;11.50;;;19.60;30.40;;;;;;10516084;28;20218;-70
2022/03/23 14:39:45;;;;;;;13.70;11.00;;;19.60;30.70;;;;;;10509090;28;20235;-70
2022/03/23 14:44:49;;;;;;;16.27;13.60;;;19.50;30.60;;;;;;10491045;28;20783;-69
2022/03/23 14:49:50;;;;;;;16.90;12.57;;;19.50;31.00;;;;;;10515607;28;20778;-71
2022/03/23 14:54:51;;;;;;;16.37;12.73;;;19.40;31.50;;;;;;10508771;28;20284;-69
2022/03/23 14:59:52;;;;;;;17.53;12.77;;;19.30;31.10;;;;;;10514146;28;20233;-70
2022/03/23 15:04:56;;;;;;;13.20;11.80;;;19.20;30.90;;;;;;10515083;28;20309;-70
2022/03/23 15:15:24;;;;;;;17.60;12.60;;;19.00;31.60;;;;;;10511721;28;20700;-70
2022/03/23 15:20:25;;;;;;;16.77;13.50;;;18.90;31.80;;;;;;10507332;28;20317;-69
2022/03/23 15:25:25;;;;;;;13.83;12.23;;;18.90;31.80;;;;;;10513316;28;20316;-70
2022/03/23 15:30:26;;;;;;;16.07;12.40;;;18.80;31.60;;;;;;10511064;28;20888;-69
2022/03/23 15:35:31;;;;;;;16.07;12.67;;;18.80;32.40;;;;;;10517882;28;20302;-69
2022/03/23 15:40:32;;;;;;;17.10;12.93;;;18.70;32.90;;;;;;10498856;28;20230;-70
2022/03/23 15:45:42;;;;;;;16.37;12.50;;;18.60;32.70;;;;;;10530979;28;20234;-70
2022/03/23 15:50:43;;;;;;;15.03;12.37;;;18.50;32.70;;;;;;10516589;28;20237;-70
2022/03/23 15:55:44;;;;;;;15.57;13.17;;;18.30;31.90;;;;;;10523140;28;20858;-70
2022/03/23 16:00:44;;;;;;;15.27;12.07;;;18.20;31.60;;;;;;10523456;28;20952;-70
2022/03/23 16:05:45;;;;;;;15.30;11.70;;;18.00;31.90;;;;;;10524572;28;20238;-70
2022/03/23 16:10:46;;;;;;;16.33;11.90;;;17.90;32.20;;;;;;10527689;28;20357;-70
2022/03/23 16:15:47;;;;;;;14.60;11.57;;;17.70;33.10;;;;;;10501088;28;20225;-70
2022/03/23 16:20:49;;;;;;;13.17;11.60;;;17.60;34.00;;;;;;10519718;28;20229;-70
2022/03/23 16:25:49;;;;;;;14.03;11.17;;;17.40;33.70;;;;;;10527525;28;20230;-71
2022/03/23 16:30:51;;;;;;;13.77;10.80;;;17.30;34.20;;;;;;10521689;28;20235;-70
2022/03/23 16:35:51;;;;;;;12.63;10.60;;;17.10;32.90;;;;;;10513710;28;20610;-70
2022/03/23 16:41:33;;;;;;;13.30;11.30;;;16.90;33.20;;;;;;10513967;28;20245;-71
2022/03/23 16:46:12;;;;;;;15.93;12.87;;;16.80;34.10;;;;;;10516554;28;20648;-69
2022/03/23 16:51:13;;;;;;;17.07;12.57;;;16.70;36.20;;;;;;10516234;28;20248;-69
2022/03/23 16:56:13;;;;;;;18.37;11.83;;;16.50;37.00;;;;;;10495034;28;20557;-70
2022/03/23 17:01:17;;;;;;;17.60;12.57;;;16.40;38.80;;;;;;10507884;28;20241;-69
2022/03/23 17:16:57;;;;;;;18.77;12.07;;;15.80;41.00;;;;;;10523725;28;20539;-70
2022/03/23 17:21:58;;;;;;;13.53;10.83;;;15.60;41.40;;;;;;10512115;28;20312;-70
2022/03/23 17:26:58;;;;;;;18.00;11.57;;;15.40;41.70;;;;;;10504413;28;20937;-69
2022/03/23 17:32:01;;;;;;;16.40;11.77;;;15.10;42.30;;;;;;10516105;28;20321;-70
2022/03/23 17:37:02;;;;;;;16.27;10.20;;;14.90;44.00;;;;;;10525782;28;20746;-70
2022/03/23 17:42:04;;;;;;;12.23;10.03;;;14.70;44.50;;;;;;10513289;28;20230;-69
2022/03/23 17:47:05;;;;;;;14.13;9.87;;;14.50;44.80;;;;;;10500970;28;20235;-69
2022/03/23 17:52:13;;;;;;;15.53;10.37;;;14.20;45.20;;;;;;10518350;28;20262;-70
2022/03/23 17:57:15;;;;;;;12.53;10.60;;;14.00;45.70;;;;;;10498381;28;20211;-71
2022/03/23 18:02:15;;;;;;;15.70;10.83;;;13.70;46.60;;;;;;10526065;28;20222;-71
2022/03/23 18:07:19;;;;;;;13.37;10.40;;;13.50;47.60;;;;;;10519901;28;20578;-71
2022/03/23 18:12:20;;;;;;;12.17;10.30;;;13.40;48.20;;;;;;10532922;28;20291;-71
2022/03/23 18:17:20;;;;;;;15.30;11.50;;;13.20;49.30;;;;;;10516576;28;20325;-71
2022/03/23 18:22:21;;;;;;;15.40;11.90;;;13.10;49.50;;;;;;10516149;28;20775;-69
2022/03/23 18:27:21;;;;;;;15.23;12.60;;;13.00;48.60;;;;;;10514736;28;20207;-71
2022/03/23 18:32:22;;;;;;;17.43;13.40;;;13.00;48.10;;;;;;10532067;28;20279;-70
2022/03/23 18:37:24;;;;;;;20.17;15.20;;;13.00;47.90;;;;;;10531773;28;20352;-70
2022/03/23 18:42:24;;;;;;;20.87;15.60;;;13.00;48.50;;;;;;10533600;28;20219;-71
2022/03/23 18:47:25;;;;;;;16.73;13.73;;;12.90;48.30;;;;;;10509689;28;20225;-71
2022/03/23 18:52:26;;;;;;;20.27;14.67;;;12.80;49.10;;;;;;10531717;28;20219;-71
2022/03/23 18:57:27;;;;;;;24.37;14.77;;;12.70;51.00;;;;;;10512705;28;20223;-71
2022/03/23 19:02:27;;;;;;;21.73;14.80;;;12.50;50.50;;;;;;10531370;28;20579;-70
2022/03/23 19:07:29;;;;;;;19.70;14.83;;;12.40;52.70;;;;;;10531851;28;20222;-71
2022/03/23 19:12:30;;;;;;;19.80;15.60;;;12.30;53.80;;;;;;10523439;28;20241;-72
2022/03/23 19:17:31;;;;;;;20.43;15.03;;;12.20;53.80;;;;;;10514740;28;20237;-70
2022/03/23 19:22:31;;;;;;;23.67;17.07;;;12.10;52.30;;;;;;10506953;28;20223;-70
2022/03/23 19:27:32;;;;;;;25.57;16.47;;;12.10;51.80;;;;;;10511325;28;20774;-71
2022/03/23 19:32:33;;;;;;;27.70;17.40;;;12.00;51.70;;;;;;10519947;28;20743;-71
2022/03/23 19:37:34;;;;;;;31.50;20.67;;;12.00;52.70;;;;;;10534684;28;20259;-70
2022/03/23 19:42:39;;;;;;;24.90;17.73;;;11.90;54.70;;;;;;10498556;28;20858;-71
2022/03/23 19:47:40;;;;;;;24.77;17.73;;;11.80;55.70;;;;;;10515321;28;20223;-73
2022/03/23 19:52:44;;;;;;;31.40;19.73;;;11.70;57.10;;;;;;10517544;28;20275;-74
2022/03/23 19:57:44;;;;;;;28.67;17.67;;;11.70;58.00;;;;;;10508683;28;20373;-74
2022/03/23 20:02:45;;;;;;;28.90;20.67;;;11.60;58.30;;;;;;10509727;28;20348;-73
2022/03/23 20:07:47;;;;;;;30.37;21.40;;;11.50;56.90;;;;;;10522361;28;20211;-73
2022/03/23 20:12:47;;;;;;;23.87;19.17;;;11.40;58.50;;;;;;10497370;28;20231;-73
2022/03/23 20:17:49;;;;;;;21.53;15.13;;;11.30;57.10;;;;;;10515969;28;20242;-72
2022/03/23 20:22:50;;;;;;;23.03;15.63;;;11.20;55.80;;;;;;10500223;28;20288;-73
2022/03/23 20:27:50;;;;;;;22.80;15.47;;;11.20;55.70;;;;;;10515364;28;20269;-73
2022/03/23 20:32:51;;;;;;;30.43;19.17;;;11.20;56.10;;;;;;10515737;28;20765;-73
2022/03/23 20:37:53;;;;;;;25.20;17.53;;;11.10;57.40;;;;;;10522027;28;20238;-72
2022/03/23 20:42:55;;;;;;;26.27;17.90;;;11.00;58.40;;;;;;10505820;28;20285;-73
2022/03/23 20:47:55;;;;;;;21.87;15.50;;;11.00;58.50;;;;;;10535538;28;20214;-74
2022/03/23 20:52:56;;;;;;;24.60;16.80;;;10.90;58.20;;;;;;10519337;28;20641;-72
2022/03/23 20:57:57;;;;;;;20.50;13.00;;;10.80;58.80;;;;;;10538134;28;20225;-73
2022/03/23 21:03:00;;;;;;;38.53;16.37;;;10.70;58.20;;;;;;10510519;28;20222;-73
2022/03/23 21:08:04;;;;;;;24.67;15.73;;;10.80;58.50;;;;;;10503545;28;20241;-72
2022/03/23 21:13:05;;;;;;;19.93;14.07;;;10.80;57.80;;;;;;10512895;28;20222;-72
2022/03/23 21:18:07;;;;;;;25.57;16.13;;;10.80;58.00;;;;;;10517810;28;20226;-73
2022/03/23 21:23:07;;;;;;;20.33;14.70;;;10.70;59.60;;;;;;10535882;28;20210;-72
2022/03/23 21:28:09;;;;;;;22.03;13.50;;;10.50;61.50;;;;;;10538762;28;20219;-72
2022/03/23 21:33:11;;;;;;;21.87;15.37;;;10.40;62.90;;;;;;10534687;28;20206;-72
2022/03/23 21:38:12;;;;;;;24.30;15.03;;;10.40;64.00;;;;;;10533879;28;20222;-73
2022/03/23 21:43:14;;;;;;;24.13;15.10;;;10.30;65.30;;;;;;10527769;28;20218;-72
2022/03/23 21:48:15;;;;;;;24.03;15.20;;;10.10;66.40;;;;;;10524195;28;20697;-73
2022/03/23 21:53:16;;;;;;;28.27;16.03;;;10.00;66.90;;;;;;10517779;28;20278;-73
2022/03/23 21:58:17;;;;;;;18.50;14.77;;;9.90;67.00;;;;;;10513668;28;20267;-73
2022/03/23 22:03:18;;;;;;;22.80;13.87;;;9.80;68.50;;;;;;10515449;28;20741;-72
2022/03/23 22:08:19;;;;;;;23.37;15.57;;;9.80;69.20;;;;;;10516755;28;20826;-72
2022/03/23 22:13:21;;;;;;;21.90;15.53;;;9.70;68.70;;;;;;10520794;28;20223;-71
2022/03/23 22:18:23;;;;;;;24.43;15.07;;;9.60;68.60;;;;;;10515067;28;20649;-72
2022/03/23 22:23:24;;;;;;;24.70;15.30;;;9.50;69.90;;;;;;10502742;28;20302;-71
2022/03/23 22:28:25;;;;;;;25.57;16.57;;;9.30;71.10;;;;;;10509525;28;20322;-71
2022/03/23 22:33:26;;;;;;;22.23;15.40;;;9.20;72.30;;;;;;10518756;28;20321;-73
2022/03/23 22:38:27;;;;;;;21.80;14.10;;;9.20;72.50;;;;;;10516039;28;20226;-74
2022/03/23 22:43:28;;;;;;;22.30;15.10;;;9.20;71.20;;;;;;10520638;28;20272;-73
2022/03/23 22:48:30;;;;;;;19.63;14.30;;;9.20;71.40;;;;;;10505690;28;20231;-71
2022/03/23 22:53:31;;;;;;;19.20;14.00;;;9.20;71.10;;;;;;10525209;28;20226;-72
2022/03/23 22:58:32;;;;;;;19.70;13.43;;;9.00;71.90;;;;;;10519580;28;20293;-72
2022/03/23 23:03:32;;;;;;;20.80;14.17;;;8.90;71.90;;;;;;10519551;28;20299;-71
2022/03/23 23:08:34;;;;;;;25.57;14.37;;;8.80;71.70;;;;;;10511042;28;20272;-71
2022/03/23 23:13:37;;;;;;;18.93;14.47;;;8.70;71.30;;;;;;10516285;28;20268;-70
2022/03/23 23:18:40;;;;;;;23.73;15.07;;;8.70;73.60;;;;;;10525349;28;20229;-71
2022/03/23 23:23:41;;;;;;;19.87;14.50;;;8.70;73.70;;;;;;10508374;28;20222;-71
2022/03/23 23:28:46;;;;;;;22.27;14.27;;;8.70;73.90;;;;;;10507029;28;20233;-73
2022/03/23 23:33:48;;;;;;;21.73;15.10;;;8.60;74.70;;;;;;10509457;28;20270;-72
2022/03/23 23:38:52;;;;;;;22.60;14.67;;;8.50;75.00;;;;;;10516834;28;20231;-71
2022/03/23 23:43:53;;;;;;;23.27;15.77;;;8.50;73.90;;;;;;10517072;28;20206;-72
2022/03/23 23:48:53;;;;;;;21.43;14.40;;;8.60;74.40;;;;;;10517939;28;20218;-72
2022/03/23 23:53:57;;;;;;;20.93;14.50;;;8.60;73.90;;;;;;10509618;28;20289;-71
2022/03/23 23:58:57;;;;;;;20.93;15.37;;;8.40;75.30;;;;;;10520107;28;20231;-71
